Andover, IA

7:21 PM CDT on August 28, 2016 (GMT -0500)
Tri-Township | | Change Station
Active Advisory: Special Statement

Elev 617 ft 42.05 °N, 90.11 °W | Updated 6 minutes ago

Clear
Clear
74 °F
Feels Like 74 °F
N
5
Wind Variable Wind from SSW

Today
High -- | Low -- °F
--% Chance of Precip.
Yesterday
High -- | Low -- °F
Precip. -- in
Pressure 30.16 in
Visibility 10.0 miles
Clouds Clear
Dew Point 70 °F
Humidity 88%
Rainfall 0.00 in
Snow Depth Not available.
6:22 AM 7:40 PM
Waning Crescent, 12% visible
METAR KSFY 290015Z AUTO 21004KT 10SM CLR 23/21 A3016 RMK AO2 T02310211
Pressure 30.16 in
Visibility 10.0 miles
Clouds Clear
Dew Point 70 °F
Humidity 88%
Rainfall 0.00 in
Snow Depth Not available.
6:22 AM 7:40 PM
Waning Crescent, 12% visible
METAR KSFY 290015Z AUTO 21004KT 10SM CLR 23/21 A3016 RMK AO2 T02310211

10-Day Weather Forecast

Almanac

Astronomy

Aug. 28, 2016 Rise Set
Actual Time
Civil Twilight
Nautical Twilight
Astronomical Twilight
Moon
Length of Visible Light
Length of Day
Tomorrow will be .
, % of the Moon is Illuminated

Today's Extremes

State Highs State Lows

Community

WunderPhotos

Upload Photos

1,935,730 photos uploaded!

WunderBlog® & News

Nearby

Air Quality

  Air Quality AQ Index Pollutant
Not available.

Snow Depth

Station Depth Elevation

Earthquake Activity

City Distance Mag. Time & Date
Minimum magnitude displayed is 2.5.

Coastal Water Temperatures

Place Temperature

Stations

Nearby Weather Stations

Station Location Temp. Windchill Dew Point Humidity Wind Precip. Elev Updated Type
                   

Watches & Warnings

Special Statement
Issued: 7:06 PM CDT Aug. 28, 2016 – National Weather Service

... Slow moving thunderstorms with heavy rain...

A slow moving area of thunderstorms with heavy rain will remain
over far eastern Iowa through 8 PM. While some locations may
remain dry... portions of
Muscatine... Cedar... Clinton... Jackson... and Scott counties will
continue to see locally very heavy rain with 1 to 3 inches
possible. This heavy rain will bring minor flooding to poorly
drained areas and cause rises on area streams. If you encounter
water over a Road... do not drive into it.



Ervin

706 PM CDT sun Aug 28 2016

... Slow moving thunderstorms with heavy rain...

A slow moving area of thunderstorms with heavy rain will remain
over far eastern Iowa through 8 PM. While some locations may
remain dry... portions of
Muscatine... Cedar... Clinton... Jackson... and Scott counties will
continue to see locally very heavy rain with 1 to 3 inches
possible. This heavy rain will bring minor flooding to poorly
drained areas and cause rises on area streams. If you encounter
water over a Road... do not drive into it.



Ervin